createdAt,value
2022-10-01T00:00:42.458Z,61.29
2022-10-01T00:03:30.102Z,63.48
2022-10-01T00:06:19.619Z,64.90
2022-10-01T00:09:07.183Z,66.99
2022-10-01T00:11:54.721Z,67.62
2022-10-01T00:14:42.280Z,71.19
2022-10-01T00:17:29.814Z,73.26
2022-10-01T00:20:17.377Z,75.13
2022-10-01T00:23:04.927Z,77.17
2022-10-01T00:25:52.515Z,77.38
2022-10-01T00:28:40.169Z,75.98
2022-10-01T00:31:27.735Z,76.58
2022-10-01T00:34:15.364Z,77.58
2022-10-01T00:37:02.911Z,77.98
2022-10-01T00:39:50.485Z,81.13
2022-10-01T00:42:38.012Z,80.25
2022-10-01T00:45:27.602Z,82.22
2022-10-01T00:48:15.199Z,82.64
2022-10-01T00:51:02.809Z,84.46
2022-10-01T00:53:50.376Z,85.70
2022-10-01T00:56:37.926Z,85.35
2022-10-01T00:59:25.491Z,85.61
2022-10-01T01:02:13.066Z,86.57
2022-10-01T01:05:00.661Z,87.39
2022-10-01T01:07:48.191Z,85.82
2022-10-01T01:10:35.778Z,84.82
2022-10-01T01:13:23.328Z,82.29
2022-10-01T01:16:10.957Z,81.16
2022-10-01T01:18:58.533Z,84.96
2022-10-01T01:21:46.103Z,85.90
2022-10-01T01:24:33.657Z,84.90
2022-10-01T01:27:21.228Z,85.93
2022-10-01T01:30:08.779Z,90.09
2022-10-01T01:32:56.340Z,89.66
2022-10-01T01:35:43.898Z,90.58
2022-10-01T01:38:31.467Z,88.50
2022-10-01T01:41:19.039Z,89.95
2022-10-01T01:44:06.617Z,89.23
2022-10-01T01:46:54.186Z,89.51
2022-10-01T01:49:41.855Z,91.49
2022-10-01T01:52:29.399Z,89.75
2022-10-01T01:55:16.964Z,88.94
2022-10-01T01:58:04.518Z,88.71
2022-10-01T02:00:52.083Z,89.43
2022-10-01T02:03:39.640Z,88.54
2022-10-01T02:06:27.239Z,88.64
2022-10-01T02:09:14.792Z,87.69
2022-10-01T02:12:02.376Z,89.86
2022-10-01T02:14:49.926Z,90.71
2022-10-01T02:17:37.491Z,89.93
2022-10-01T02:20:25.044Z,89.61
2022-10-01T02:23:12.606Z,88.84
2022-10-01T02:26:00.182Z,87.94
2022-10-01T02:28:47.728Z,87.24
2022-10-01T02:31:35.613Z,88.20
2022-10-01T02:34:24.706Z,87.66
2022-10-01T02:37:12.368Z,89.23
2022-10-01T02:39:59.907Z,90.18
2022-10-01T02:42:47.463Z,90.38
2022-10-01T02:45:35.047Z,88.67
2022-10-01T02:48:22.660Z,89.79
2022-10-01T02:51:10.231Z,88.69
2022-10-01T02:53:57.785Z,87.72
2022-10-01T02:56:48.883Z,87.33
2022-10-01T02:59:36.828Z,86.88
2022-10-01T03:02:24.421Z,83.56
2022-10-01T03:05:11.990Z,86.26
2022-10-01T03:07:59.524Z,85.54
2022-10-01T03:10:47.113Z,83.86
2022-10-01T03:13:34.647Z,85.87
2022-10-01T03:16:22.237Z,83.78
2022-10-01T03:19:09.799Z,84.09
2022-10-01T03:21:57.345Z,82.84
2022-10-01T03:24:44.887Z,85.09
2022-10-01T03:27:32.436Z,83.76
2022-10-01T03:30:19.974Z,83.88
2022-10-01T03:33:07.539Z,84.31
2022-10-01T03:35:55.078Z,83.87
2022-10-01T03:38:42.653Z,85.04
2022-10-01T03:41:30.210Z,84.05
2022-10-01T03:44:17.768Z,87.53
2022-10-01T03:47:05.436Z,85.93
2022-10-01T03:49:53.009Z,86.94
2022-10-01T03:52:40.574Z,88.14
2022-10-01T03:55:28.095Z,87.58
2022-10-01T03:58:15.681Z,86.68
2022-10-01T04:01:03.231Z,88.62
2022-10-01T04:03:50.785Z,89.15
2022-10-01T04:06:38.431Z,89.03
2022-10-01T04:09:25.989Z,88.59
2022-10-01T04:12:13.565Z,88.60
2022-10-01T04:15:01.161Z,90.05
2022-10-01T04:17:48.718Z,91.97
2022-10-01T04:20:36.278Z,92.45
2022-10-01T04:23:23.846Z,92.59
2022-10-01T04:26:11.385Z,90.85
2022-10-01T04:28:58.953Z,92.23
2022-10-01T04:31:46.808Z,90.90
2022-10-01T04:34:34.448Z,90.12
2022-10-01T04:37:21.996Z,90.44
2022-10-01T04:40:09.566Z,89.84
2022-10-01T04:42:57.122Z,87.19
2022-10-01T04:45:44.678Z,86.61
2022-10-01T04:48:32.221Z,87.76
2022-10-01T04:51:19.857Z,86.92
2022-10-01T04:54:09.392Z,86.92
2022-10-01T04:56:56.955Z,85.99
2022-10-01T04:59:44.509Z,85.98
2022-10-01T05:02:32.105Z,85.87
2022-10-01T05:05:19.687Z,84.63
2022-10-01T05:08:07.331Z,86.13
2022-10-01T05:10:54.865Z,84.73
2022-10-01T05:13:42.425Z,85.12
2022-10-01T05:16:30.021Z,85.75
2022-10-01T05:19:17.661Z,86.06
2022-10-01T05:22:05.207Z,88.43
2022-10-01T05:24:52.859Z,88.70
2022-10-01T05:27:42.389Z,88.67
2022-10-01T05:30:30.023Z,87.64
2022-10-01T05:33:19.549Z,86.00
2022-10-01T05:36:07.123Z,86.21
2022-10-01T05:38:54.666Z,86.58
2022-10-01T05:41:42.228Z,86.70
2022-10-01T05:44:29.751Z,85.52
2022-10-01T05:47:17.304Z,81.93
2022-10-01T05:50:04.850Z,80.62
2022-10-01T05:52:52.405Z,80.60
2022-10-01T05:55:39.938Z,82.35
2022-10-01T05:58:27.496Z,84.31
2022-10-01T06:01:15.043Z,90.35
2022-10-01T06:04:02.597Z,89.32
2022-10-01T06:06:50.137Z,91.86
2022-10-01T06:09:37.693Z,91.59
2022-10-01T06:12:25.235Z,91.86
2022-10-01T06:15:12.883Z,90.15
2022-10-01T06:18:02.412Z,88.82
2022-10-01T06:20:49.976Z,86.82
2022-10-01T06:23:37.516Z,84.87
2022-10-01T06:26:25.086Z,85.95
2022-10-01T06:29:12.631Z,85.39
2022-10-01T06:32:00.251Z,87.41
2022-10-01T06:34:47.796Z,88.33
2022-10-01T06:37:35.365Z,86.57
2022-10-01T06:40:22.907Z,84.58
2022-10-01T06:43:12.503Z,85.01
2022-10-01T06:46:00.130Z,86.62
2022-10-01T06:48:47.756Z,86.85
2022-10-01T06:51:35.612Z,85.79
2022-10-01T06:54:23.507Z,87.79
2022-10-01T06:57:11.050Z,88.40
2022-10-01T06:59:58.606Z,89.93
2022-10-01T07:02:46.239Z,90.46
2022-10-01T07:05:34.148Z,89.81
2022-10-01T07:08:21.690Z,88.63
2022-10-01T07:11:09.356Z,89.83
2022-10-01T07:13:56.923Z,90.18
2022-10-01T07:16:44.542Z,92.45
2022-10-01T07:19:32.192Z,92.31
2022-10-01T07:22:19.719Z,91.25
2022-10-01T07:25:07.269Z,91.72
2022-10-01T07:27:54.883Z,91.70
2022-10-01T07:30:42.467Z,91.34
2022-10-01T07:33:30.049Z,91.35
2022-10-01T07:36:17.575Z,89.93
2022-10-01T07:39:05.115Z,89.73
2022-10-01T07:41:52.660Z,89.82
2022-10-01T07:44:42.211Z,88.52
2022-10-01T07:47:29.764Z,87.74
2022-10-01T07:50:17.320Z,86.60
2022-10-01T07:53:04.863Z,86.82
2022-10-01T07:55:54.429Z,86.10
2022-10-01T07:58:41.965Z,87.54
2022-10-01T08:01:29.563Z,86.67
2022-10-01T08:04:17.124Z,87.83
2022-10-01T08:07:04.675Z,88.09
2022-10-01T08:09:52.211Z,87.21
2022-10-01T08:12:39.767Z,86.11
2022-10-01T08:15:27.301Z,87.49
2022-10-01T08:18:14.860Z,87.84
2022-10-01T08:21:02.503Z,88.14
2022-10-01T08:23:50.040Z,87.05
2022-10-01T08:26:37.592Z,87.22
2022-10-01T08:29:25.166Z,89.42
2022-10-01T08:32:12.707Z,88.97
2022-10-01T08:35:00.314Z,88.80
2022-10-01T08:37:47.861Z,89.11
2022-10-01T08:40:35.429Z,89.41
2022-10-01T08:43:23.001Z,91.11
2022-10-01T08:46:10.623Z,89.35
2022-10-01T08:48:58.223Z,89.48
2022-10-01T08:51:45.765Z,90.77
2022-10-01T08:54:33.376Z,91.33
2022-10-01T08:57:20.908Z,91.95
2022-10-01T09:00:08.448Z,91.44
2022-10-01T09:02:56.026Z,91.44
2022-10-01T09:05:43.599Z,91.47
2022-10-01T09:08:31.141Z,91.34
2022-10-01T09:11:18.705Z,88.74
2022-10-01T09:14:06.232Z,87.46
2022-10-01T09:16:53.851Z,88.96
2022-10-01T09:19:43.450Z,89.74
2022-10-01T09:22:32.648Z,92.70
2022-10-01T09:25:20.187Z,90.58
2022-10-01T09:28:07.850Z,89.97
2022-10-01T09:30:55.421Z,92.27
2022-10-01T09:33:42.989Z,90.87
2022-10-01T09:36:30.526Z,90.35
2022-10-01T09:39:18.089Z,91.08
2022-10-01T09:42:05.624Z,90.18
2022-10-01T09:44:53.186Z,90.45
2022-10-01T09:47:40.737Z,91.90
2022-10-01T09:50:28.286Z,92.32
2022-10-01T09:53:15.835Z,90.95
2022-10-01T09:56:03.404Z,89.62
2022-10-01T09:58:50.957Z,87.10
2022-10-01T10:01:38.921Z,87.00
2022-10-01T10:04:27.648Z,85.57
2022-10-01T10:07:17.205Z,85.75
2022-10-01T10:10:04.779Z,86.88
2022-10-01T10:12:52.336Z,85.92
2022-10-01T10:15:39.881Z,83.84
2022-10-01T10:18:27.495Z,85.19
2022-10-01T10:21:15.024Z,86.05
2022-10-01T10:24:02.580Z,85.58
2022-10-01T10:26:50.109Z,85.08
2022-10-01T10:29:37.667Z,82.96
2022-10-01T10:32:25.206Z,80.99
2022-10-01T10:35:12.766Z,82.34
2022-10-01T10:38:00.317Z,84.44
2022-10-01T10:40:47.961Z,84.24
2022-10-01T10:43:35.510Z,86.61
2022-10-01T10:46:25.105Z,85.45
2022-10-01T10:49:12.737Z,87.45
2022-10-01T10:52:00.289Z,84.96
2022-10-01T10:54:47.826Z,83.56
2022-10-01T10:57:35.368Z,83.44
2022-10-01T11:00:22.912Z,85.72
2022-10-01T11:03:10.464Z,85.05
2022-10-01T11:05:58.003Z,84.07
2022-10-01T11:08:45.532Z,81.94
2022-10-01T11:11:33.083Z,85.29
2022-10-01T11:14:23.600Z,86.12
2022-10-01T11:17:11.548Z,86.25
2022-10-01T11:19:59.109Z,84.78
2022-10-01T11:22:46.663Z,87.77
2022-10-01T11:25:34.262Z,86.08
2022-10-01T11:28:21.879Z,86.09
2022-10-01T11:31:09.484Z,85.30
2022-10-01T11:33:57.081Z,86.39
2022-10-01T11:36:44.625Z,89.04
2022-10-01T11:39:32.173Z,86.99
2022-10-01T11:42:19.723Z,88.96
2022-10-01T11:45:07.290Z,88.65
2022-10-01T11:47:54.875Z,87.35
2022-10-01T11:50:42.444Z,87.40
2022-10-01T11:53:30.019Z,87.51
2022-10-01T11:56:17.562Z,87.40
2022-10-01T11:59:05.130Z,86.92
2022-10-01T12:01:52.734Z,89.42
2022-10-01T12:04:40.433Z,88.99
2022-10-01T12:07:27.976Z,90.18
2022-10-01T12:10:15.529Z,88.75
2022-10-01T12:13:03.067Z,87.79
2022-10-01T12:15:50.664Z,90.49
2022-10-01T12:18:38.249Z,90.38
2022-10-01T12:21:25.801Z,91.11
2022-10-01T12:24:13.336Z,90.92
2022-10-01T12:27:00.905Z,90.85
2022-10-01T12:29:48.464Z,91.43
2022-10-01T12:32:36.046Z,90.93
2022-10-01T12:35:23.601Z,91.02
2022-10-01T12:38:11.157Z,90.97
2022-10-01T12:40:58.707Z,91.22
2022-10-01T12:43:46.256Z,93.75
2022-10-01T12:46:34.186Z,92.96
2022-10-01T12:49:21.949Z,95.45
2022-10-01T12:52:09.490Z,95.14
2022-10-01T12:54:57.046Z,96.18
2022-10-01T12:57:44.593Z,96.18
2022-10-01T13:00:32.198Z,96.13
2022-10-01T13:03:19.793Z,94.36
2022-10-01T13:06:07.469Z,95.57
2022-10-01T13:08:54.991Z,95.66
2022-10-01T13:11:42.562Z,96.19
2022-10-01T13:14:30.100Z,97.62
2022-10-01T13:17:17.652Z,97.23
2022-10-01T13:20:05.187Z,95.55
2022-10-01T13:22:52.771Z,98.38
2022-10-01T13:25:40.315Z,98.61
2022-10-01T13:28:27.929Z,98.29
2022-10-01T13:31:15.568Z,99.55
2022-10-01T13:34:03.183Z,98.65
2022-10-01T13:36:50.739Z,98.95
2022-10-01T13:39:39.661Z,98.38
2022-10-01T13:42:27.283Z,100.00
2022-10-01T13:45:16.745Z,100.00
2022-10-01T13:48:04.438Z,99.67
2022-10-01T13:50:54.009Z,99.54
2022-10-01T13:53:41.548Z,99.06
2022-10-01T13:56:29.118Z,99.54
2022-10-01T13:59:16.674Z,99.18
2022-10-01T14:02:04.348Z,99.51
2022-10-01T14:04:51.980Z,99.39
2022-10-01T14:07:39.642Z,98.65
2022-10-01T14:10:27.209Z,98.45
2022-10-01T14:13:17.334Z,97.37
2022-10-01T14:16:08.545Z,97.60
2022-10-01T14:18:56.164Z,96.97
2022-10-01T14:21:43.724Z,97.02
2022-10-01T14:24:31.288Z,99.22
2022-10-01T14:27:18.837Z,97.87
2022-10-01T14:30:08.416Z,99.04
2022-10-01T14:32:55.952Z,99.84
2022-10-01T14:35:43.524Z,99.99
2022-10-01T14:38:31.081Z,100.00
2022-10-01T14:41:18.662Z,100.00
2022-10-01T14:44:06.214Z,100.00
2022-10-01T14:46:53.873Z,100.00
2022-10-01T14:49:41.484Z,99.26
2022-10-01T14:52:29.079Z,100.00
2022-10-01T14:55:16.641Z,99.37
2022-10-01T14:58:04.215Z,97.58
2022-10-01T15:00:51.797Z,100.00
2022-10-01T15:03:39.388Z,99.14
2022-10-01T15:06:26.961Z,99.95
2022-10-01T15:09:14.525Z,98.49
2022-10-01T15:12:02.068Z,99.58
2022-10-01T15:14:49.644Z,98.28
2022-10-01T15:17:37.198Z,97.91
2022-10-01T15:20:24.786Z,98.51
2022-10-01T15:23:12.365Z,99.00
2022-10-01T15:25:59.942Z,100.00
2022-10-01T15:28:47.506Z,100.00
2022-10-01T15:31:35.258Z,99.84
2022-10-01T15:34:22.848Z,99.31
2022-10-01T15:37:10.425Z,99.46
2022-10-01T15:39:57.979Z,99.92
2022-10-01T15:42:45.560Z,99.56
2022-10-01T15:45:33.096Z,98.20
2022-10-01T15:48:20.660Z,98.42
2022-10-01T15:51:08.223Z,100.00
2022-10-01T15:53:55.815Z,99.51
2022-10-01T15:56:43.355Z,100.00
2022-10-01T15:59:30.930Z,100.00
2022-10-01T16:02:18.626Z,100.00
2022-10-01T16:05:06.337Z,100.00
2022-10-01T16:07:53.918Z,99.82
2022-10-01T16:10:41.500Z,98.67
2022-10-01T16:13:29.045Z,98.74
2022-10-01T16:16:16.763Z,98.90
2022-10-01T16:19:04.362Z,98.43
2022-10-01T16:21:51.937Z,99.03
2022-10-01T16:24:41.466Z,99.07
2022-10-01T16:27:29.035Z,99.67
2022-10-01T16:30:16.575Z,100.00
2022-10-01T16:33:04.151Z,100.00
2022-10-01T16:35:51.709Z,100.00
2022-10-01T16:38:39.294Z,100.00
2022-10-01T16:41:26.829Z,100.00
2022-10-01T16:44:14.403Z,100.00
2022-10-01T16:47:01.990Z,100.00
2022-10-01T16:49:49.577Z,100.00
2022-10-01T16:52:37.132Z,100.00
2022-10-01T16:55:24.714Z,100.00
2022-10-01T16:58:12.263Z,100.00
2022-10-01T17:00:59.912Z,100.00
2022-10-01T17:03:47.498Z,100.00
2022-10-01T17:06:35.350Z,100.00
2022-10-01T17:09:23.072Z,100.00
2022-10-01T17:12:10.623Z,100.00
2022-10-01T17:14:58.175Z,100.00
2022-10-01T17:17:45.733Z,100.00
2022-10-01T17:20:33.306Z,100.00
2022-10-01T17:23:20.967Z,100.00
2022-10-01T17:26:08.529Z,100.00
2022-10-01T17:28:56.128Z,100.00
2022-10-01T17:31:43.748Z,100.00
2022-10-01T17:34:31.354Z,100.00
2022-10-01T17:37:18.891Z,100.00
2022-10-01T17:40:06.461Z,100.00
2022-10-01T17:42:54.034Z,100.00
2022-10-01T17:45:41.713Z,100.00
2022-10-01T17:48:29.334Z,99.39
2022-10-01T17:51:17.008Z,99.84
2022-10-01T17:54:06.553Z,99.82
2022-10-01T17:56:54.116Z,97.02
2022-10-01T17:59:41.678Z,100.00
2022-10-01T18:02:41.533Z,95.10
2022-10-01T18:05:29.972Z,94.90
2022-10-01T18:08:17.539Z,96.92
2022-10-01T18:11:05.113Z,97.71
2022-10-01T18:13:52.692Z,96.76
2022-10-01T18:16:40.732Z,96.62
2022-10-01T18:19:52.850Z,95.86
2022-10-01T18:22:36.067Z,96.94
2022-10-01T18:25:23.655Z,96.41
2022-10-01T18:28:12.909Z,95.11
2022-10-01T18:31:00.529Z,98.28
2022-10-01T18:33:48.124Z,97.12
2022-10-01T18:36:35.904Z,98.72
2022-10-01T18:39:23.699Z,98.32
2022-10-01T18:42:11.235Z,98.84
2022-10-01T18:44:58.787Z,99.36
2022-10-01T18:47:46.317Z,99.77
2022-10-01T18:50:33.865Z,96.47
2022-10-01T18:53:21.415Z,98.04
2022-10-01T18:56:08.957Z,97.73
2022-10-01T18:58:56.518Z,100.00
2022-10-01T19:01:44.227Z,100.00
2022-10-01T19:04:32.011Z,99.07
2022-10-01T19:07:19.561Z,98.02
2022-10-01T19:10:07.147Z,97.85
2022-10-01T19:12:54.705Z,98.43
2022-10-01T19:15:42.291Z,96.59
2022-10-01T19:18:29.854Z,99.30
2022-10-01T19:21:17.437Z,100.00
2022-10-01T19:24:04.997Z,100.00
2022-10-01T19:26:52.532Z,100.00
2022-10-01T19:29:40.179Z,100.00
2022-10-01T19:32:29.716Z,100.00
2022-10-01T19:35:17.282Z,100.00
2022-10-01T19:38:04.852Z,100.00
2022-10-01T19:40:52.407Z,100.00
2022-10-01T19:43:39.977Z,100.00
2022-10-01T19:46:27.552Z,100.00
2022-10-01T19:49:15.140Z,100.00
2022-10-01T19:52:02.678Z,100.00
2022-10-01T19:54:50.247Z,100.00
2022-10-01T19:57:37.800Z,100.00
2022-10-01T20:00:25.377Z,100.00
2022-10-01T20:03:12.929Z,98.12
2022-10-01T20:06:00.590Z,97.93
2022-10-01T20:08:48.160Z,100.00
2022-10-01T20:11:35.744Z,100.00
2022-10-01T20:14:23.297Z,99.83
2022-10-01T20:17:10.927Z,100.00
2022-10-01T20:19:58.469Z,98.41
2022-10-01T20:22:46.049Z,98.26
2022-10-01T20:25:33.606Z,98.32
2022-10-01T20:28:21.251Z,98.70
2022-10-01T20:31:08.901Z,98.46
2022-10-01T20:33:56.584Z,98.10
2022-10-01T20:36:44.143Z,100.00
2022-10-01T20:39:31.718Z,98.07
2022-10-01T20:42:19.248Z,98.77
2022-10-01T20:45:06.822Z,98.63
2022-10-01T20:47:54.359Z,96.44
2022-10-01T20:50:41.935Z,97.14
2022-10-01T20:53:29.474Z,94.87
2022-10-01T20:56:17.047Z,95.10
2022-10-01T20:59:04.607Z,96.49
2022-10-01T21:01:52.248Z,95.38
2022-10-01T21:04:39.849Z,97.98
2022-10-01T21:07:27.414Z,97.72
2022-10-01T21:10:14.987Z,98.64
2022-10-01T21:13:02.589Z,97.30
2022-10-01T21:15:50.130Z,98.50
2022-10-01T21:18:37.769Z,97.30
2022-10-01T21:21:25.311Z,96.46
2022-10-01T21:24:12.965Z,94.42
2022-10-01T21:27:00.495Z,95.24
2022-10-01T21:29:48.072Z,96.93
2022-10-01T21:32:35.610Z,95.43
2022-10-01T21:35:23.166Z,98.00
2022-10-01T21:38:10.729Z,96.05
2022-10-01T21:40:58.281Z,95.92
2022-10-01T21:43:45.856Z,98.19
2022-10-01T21:46:33.657Z,100.00
2022-10-01T21:49:21.419Z,98.86
2022-10-01T21:52:08.973Z,97.45
2022-10-01T21:54:56.554Z,97.42
2022-10-01T21:57:44.110Z,94.25
2022-10-01T22:00:31.751Z,96.67
2022-10-01T22:03:19.326Z,97.52
2022-10-01T22:06:06.898Z,96.38
2022-10-01T22:08:54.482Z,94.91
2022-10-01T22:11:42.052Z,93.60
2022-10-01T22:14:29.588Z,96.37
2022-10-01T22:17:17.136Z,97.17
2022-10-01T22:20:04.677Z,95.24
2022-10-01T22:22:52.246Z,97.44
2022-10-01T22:25:39.805Z,96.60
2022-10-01T22:28:27.556Z,96.25
2022-10-01T22:31:15.200Z,96.22
2022-10-01T22:34:02.879Z,95.48
2022-10-01T22:36:50.425Z,94.87
2022-10-01T22:39:37.977Z,93.50
2022-10-01T22:42:25.537Z,90.82
2022-10-01T22:45:13.077Z,90.52
2022-10-01T22:48:00.637Z,89.22
2022-10-01T22:50:48.174Z,92.15
2022-10-01T22:53:35.742Z,93.07
2022-10-01T22:56:23.285Z,95.21
2022-10-01T22:59:10.849Z,96.17
2022-10-01T23:05:25.498Z,96.55
2022-10-01T23:08:13.057Z,95.36
2022-10-01T23:11:00.628Z,96.95
2022-10-01T23:13:48.288Z,96.83
2022-10-01T23:16:36.111Z,94.42
2022-10-01T23:19:23.951Z,95.33
2022-10-01T23:22:11.508Z,97.91
2022-10-01T23:24:59.093Z,94.00
2022-10-01T23:27:46.653Z,94.71
2022-10-01T23:30:34.224Z,96.79
2022-10-01T23:33:21.759Z,97.32
2022-10-01T23:36:09.422Z,94.82
2022-10-01T23:38:56.963Z,95.51
2022-10-01T23:41:44.515Z,94.75
2022-10-01T23:44:32.082Z,95.28
2022-10-01T23:47:19.654Z,93.30
2022-10-01T23:50:07.218Z,95.25
2022-10-01T23:52:54.793Z,96.56
2022-10-01T23:55:42.374Z,95.29
2022-10-01T23:58:29.926Z,95.12
